Time;durP1;ratioP1;P1;durP2;ratioP2;P2;SDS_P1;SDS_P2;PMS_P1;PMS_P2;Temp;Humidity;BMP_temperature;BMP_pressure;BME280_temperature;BME280_humidity;BME280_pressure;Samples;Min_cycle;Max_cycle;Signal;HPM_P1;HPM_P2
2023/12/31 00:00:28;;;;;;;1.77;1.30;;;8.00;99.90;;;;;;5089484;28;20237;-74
2023/12/31 00:02:53;;;;;;;3.83;1.57;;;7.90;99.90;;;;;;5088192;28;20412;-74
2023/12/31 00:05:19;;;;;;;1.10;1.00;;;7.90;99.90;;;;;;5089580;28;20262;-74
2023/12/31 00:07:45;;;;;;;2.03;1.50;;;7.90;99.90;;;;;;5071129;28;20210;-74
2023/12/31 00:10:11;;;;;;;3.83;1.40;;;7.90;99.90;;;;;;5087628;28;20254;-74
2023/12/31 00:12:36;;;;;;;1.93;1.43;;;7.80;99.90;;;;;;5070609;28;20957;-74
2023/12/31 00:15:04;;;;;;;1.93;1.27;;;7.80;99.90;;;;;;5089292;28;20264;-74
2023/12/31 00:17:30;;;;;;;1.80;1.03;;;7.70;99.90;;;;;;5087636;28;20875;-75
2023/12/31 00:19:56;;;;;;;1.20;1.10;;;7.70;99.90;;;;;;5089082;28;20421;-74
2023/12/31 00:22:21;;;;;;;2.17;1.40;;;7.60;99.90;;;;;;5087820;28;20203;-74
2023/12/31 00:24:51;;;;;;;2.13;1.67;;;7.60;99.90;;;;;;5087539;28;20478;-74
2023/12/31 00:27:16;;;;;;;2.37;1.10;;;7.60;99.90;;;;;;5087715;28;20324;-74
2023/12/31 00:29:44;;;;;;;2.10;1.20;;;7.60;99.90;;;;;;5087470;28;21002;-74
2023/12/31 00:32:10;;;;;;;1.73;1.27;;;7.60;99.90;;;;;;5087403;28;20431;-74
2023/12/31 00:34:36;;;;;;;1.50;1.20;;;7.50;99.90;;;;;;5088942;28;20413;-74
2023/12/31 00:37:03;;;;;;;1.20;1.03;;;7.60;99.90;;;;;;5088603;28;20198;-74
2023/12/31 00:39:28;;;;;;;1.30;1.20;;;7.70;99.90;;;;;;5088560;28;21050;-74
2023/12/31 00:41:54;;;;;;;1.30;1.00;;;7.60;99.90;;;;;;5088590;28;20517;-73
2023/12/31 00:44:19;;;;;;;1.27;1.17;;;7.50;99.90;;;;;;5086921;28;20324;-73
2023/12/31 00:46:45;;;;;;;2.07;1.00;;;7.40;99.90;;;;;;5087597;28;20221;-73
2023/12/31 00:49:11;;;;;;;2.17;0.83;;;7.60;99.90;;;;;;5086862;28;20216;-73
2023/12/31 00:51:36;;;;;;;1.10;1.00;;;7.70;99.90;;;;;;5088400;28;20694;-74
2023/12/31 00:54:02;;;;;;;1.13;1.03;;;7.80;99.90;;;;;;5086912;28;20760;-74
2023/12/31 00:56:28;;;;;;;1.40;1.10;;;7.90;99.90;;;;;;5088181;28;20206;-73
2023/12/31 00:58:53;;;;;;;1.23;1.00;;;7.90;99.90;;;;;;5088323;28;20274;-73
2023/12/31 01:01:19;;;;;;;2.57;1.27;;;7.90;99.90;;;;;;5088370;28;20195;-74
2023/12/31 01:03:44;;;;;;;1.10;0.90;;;7.90;99.90;;;;;;5086858;28;20291;-74
2023/12/31 01:06:10;;;;;;;7.50;1.27;;;8.00;99.90;;;;;;5086726;28;20210;-74
2023/12/31 01:08:36;;;;;;;1.40;1.10;;;7.90;99.90;;;;;;5088429;28;20210;-73
2023/12/31 01:11:02;;;;;;;1.50;0.90;;;7.90;99.90;;;;;;5088467;28;20182;-73
2023/12/31 01:13:28;;;;;;;1.20;0.90;;;7.90;99.90;;;;;;5088525;28;20187;-74
2023/12/31 01:15:53;;;;;;;1.20;1.00;;;7.80;99.90;;;;;;5086989;28;20488;-74
2023/12/31 01:18:20;;;;;;;1.17;0.87;;;7.80;99.90;;;;;;5088948;28;20463;-74
2023/12/31 01:20:45;;;;;;;0.90;0.70;;;7.60;99.90;;;;;;5087591;28;20261;-73
2023/12/31 01:23:11;;;;;;;0.90;0.70;;;7.60;99.90;;;;;;5087310;28;20461;-73
2023/12/31 01:25:37;;;;;;;1.27;1.00;;;7.60;99.90;;;;;;5073334;28;20206;-74
2023/12/31 01:28:03;;;;;;;2.30;0.80;;;7.50;99.90;;;;;;5092625;28;20182;-75
2023/12/31 01:30:29;;;;;;;1.03;0.83;;;7.50;99.90;;;;;;5091230;28;20818;-75
2023/12/31 01:32:54;;;;;;;2.40;1.00;;;7.60;99.90;;;;;;5092783;28;20420;-75
2023/12/31 01:35:20;;;;;;;1.37;0.80;;;7.50;99.90;;;;;;5090694;28;20536;-75
2023/12/31 01:37:46;;;;;;;1.20;0.80;;;7.60;99.90;;;;;;5091477;28;20555;-74
2023/12/31 01:40:12;;;;;;;0.97;0.87;;;7.60;99.90;;;;;;5090945;28;20291;-74
2023/12/31 01:42:37;;;;;;;1.43;1.00;;;7.60;99.90;;;;;;5091128;28;20682;-75
2023/12/31 01:45:04;;;;;;;2.10;0.77;;;7.60;99.90;;;;;;5092124;28;20499;-74
2023/12/31 01:47:32;;;;;;;1.27;1.10;;;7.60;99.90;;;;;;5092107;28;20442;-74
2023/12/31 01:49:58;;;;;;;0.90;0.70;;;7.60;99.90;;;;;;5091861;28;20472;-74
2023/12/31 01:52:24;;;;;;;0.80;0.80;;;7.60;99.90;;;;;;5092054;28;20938;-75
2023/12/31 01:54:52;;;;;;;2.20;1.10;;;7.60;99.90;;;;;;5091043;28;20443;-74
2023/12/31 01:57:23;;;;;;;1.37;1.00;;;7.70;99.90;;;;;;5091986;28;20448;-74
2023/12/31 01:59:50;;;;;;;0.93;0.83;;;7.70;99.90;;;;;;5090437;28;20420;-74
2023/12/31 02:02:16;;;;;;;0.90;0.80;;;7.60;99.90;;;;;;5091614;28;20481;-74
2023/12/31 02:04:42;;;;;;;1.00;0.90;;;7.60;99.90;;;;;;5091760;28;20880;-74
2023/12/31 02:07:07;;;;;;;1.27;0.87;;;7.70;99.90;;;;;;5090342;28;20305;-74
2023/12/31 02:09:33;;;;;;;1.10;1.00;;;7.60;99.90;;;;;;5091626;28;21153;-74
2023/12/31 02:11:59;;;;;;;1.23;0.90;;;7.60;99.90;;;;;;5090417;28;20211;-74
2023/12/31 02:14:25;;;;;;;1.70;1.40;;;7.60;99.90;;;;;;5091760;28;20450;-73
2023/12/31 02:16:50;;;;;;;1.17;0.90;;;7.60;99.90;;;;;;5089925;28;20448;-73
2023/12/31 02:19:16;;;;;;;0.90;0.70;;;7.60;99.90;;;;;;5091362;28;20677;-73
2023/12/31 02:21:42;;;;;;;1.47;1.00;;;7.60;99.90;;;;;;5090177;28;20194;-74
2023/12/31 02:24:13;;;;;;;1.00;0.80;;;7.70;99.90;;;;;;5091397;28;20693;-74
2023/12/31 02:26:39;;;;;;;0.87;0.77;;;7.60;99.90;;;;;;5091395;28;20202;-73
2023/12/31 02:29:05;;;;;;;0.97;0.70;;;7.60;99.90;;;;;;5091168;28;20464;-74
2023/12/31 02:31:31;;;;;;;1.10;0.90;;;7.60;99.90;;;;;;5090057;28;20425;-74
2023/12/31 02:33:57;;;;;;;1.20;0.90;;;7.60;99.90;;;;;;5089721;28;20186;-74
2023/12/31 02:36:22;;;;;;;1.67;1.00;;;7.70;99.90;;;;;;5089385;28;20470;-74
2023/12/31 02:38:48;;;;;;;3.40;1.23;;;7.70;99.90;;;;;;5091218;28;20277;-74
2023/12/31 02:41:13;;;;;;;1.00;0.90;;;7.80;99.90;;;;;;5091114;28;20187;-74
2023/12/31 02:43:39;;;;;;;1.13;1.00;;;7.90;99.90;;;;;;5089702;28;20656;-74
2023/12/31 02:46:05;;;;;;;1.20;0.80;;;7.90;99.90;;;;;;5091105;28;20208;-74
2023/12/31 02:48:30;;;;;;;1.03;0.90;;;7.90;99.90;;;;;;5090952;28;20186;-74
2023/12/31 02:50:56;;;;;;;1.20;0.90;;;7.90;99.90;;;;;;5091212;28;20179;-74
2023/12/31 02:53:21;;;;;;;1.43;0.73;;;7.90;99.90;;;;;;5091344;28;20528;-74
2023/12/31 02:55:47;;;;;;;2.33;0.93;;;8.00;99.90;;;;;;5091383;28;20250;-74
2023/12/31 02:58:12;;;;;;;1.20;0.90;;;7.90;99.90;;;;;;5090071;28;20183;-75
2023/12/31 03:00:38;;;;;;;1.10;1.00;;;7.90;99.90;;;;;;5090098;28;20204;-75
2023/12/31 03:03:04;;;;;;;1.17;0.80;;;7.90;99.90;;;;;;5091391;28;20182;-74
2023/12/31 03:05:29;;;;;;;1.27;1.00;;;7.80;99.90;;;;;;5089941;28;20187;-74
2023/12/31 03:07:55;;;;;;;1.10;0.90;;;7.80;99.90;;;;;;5091210;28;20230;-73
2023/12/31 03:10:21;;;;;;;1.00;0.90;;;7.80;99.90;;;;;;5091181;28;20207;-74
2023/12/31 03:12:47;;;;;;;1.30;1.00;;;7.90;99.90;;;;;;5091106;28;20848;-74
2023/12/31 03:15:13;;;;;;;1.37;0.90;;;7.90;99.90;;;;;;5091085;28;20182;-74
2023/12/31 03:17:38;;;;;;;2.00;1.23;;;7.90;99.90;;;;;;5089584;28;21032;-74
2023/12/31 03:20:05;;;;;;;2.20;1.10;;;7.90;99.90;;;;;;5089524;28;20190;-74
2023/12/31 03:22:31;;;;;;;0.93;0.83;;;8.10;99.90;;;;;;5089240;28;20247;-75
2023/12/31 03:24:56;;;;;;;1.07;0.73;;;8.20;99.90;;;;;;5089213;28;20420;-74
2023/12/31 03:27:22;;;;;;;2.03;1.20;;;8.30;99.90;;;;;;5089034;28;20209;-74
2023/12/31 03:29:47;;;;;;;2.93;1.00;;;8.40;99.90;;;;;;5090515;28;20202;-73
2023/12/31 03:32:13;;;;;;;1.60;1.03;;;8.40;99.90;;;;;;5090507;28;20601;-74
2023/12/31 03:34:38;;;;;;;1.63;0.90;;;8.40;99.90;;;;;;5090207;28;20552;-74
2023/12/31 03:37:04;;;;;;;0.97;0.87;;;8.40;99.90;;;;;;5090184;28;20267;-74
2023/12/31 03:39:30;;;;;;;3.83;1.07;;;8.40;99.90;;;;;;5090258;28;20189;-74
2023/12/31 03:41:56;;;;;;;1.07;0.97;;;8.50;99.90;;;;;;5071697;28;20194;-74
2023/12/31 03:44:21;;;;;;;2.37;1.10;;;8.60;99.90;;;;;;5088868;28;20194;-74
2023/12/31 03:46:47;;;;;;;1.23;0.80;;;8.60;99.90;;;;;;5087921;28;20696;-74
2023/12/31 03:49:12;;;;;;;0.80;0.80;;;8.50;99.90;;;;;;5071583;28;20214;-74
2023/12/31 03:51:38;;;;;;;1.00;0.70;;;8.40;99.90;;;;;;5088639;28;20174;-74
2023/12/31 03:54:05;;;;;;;1.83;0.67;;;8.50;99.90;;;;;;5088393;28;20623;-74
2023/12/31 03:56:31;;;;;;;0.87;0.73;;;8.40;99.90;;;;;;5088141;28;20197;-74
2023/12/31 03:58:57;;;;;;;2.23;1.13;;;8.40;99.90;;;;;;5088067;28;20421;-74
2023/12/31 04:01:22;;;;;;;0.93;0.83;;;8.50;99.90;;;;;;5071244;28;20186;-74
2023/12/31 04:03:48;;;;;;;1.67;0.90;;;8.40;99.90;;;;;;5088187;28;20178;-74
2023/12/31 04:06:13;;;;;;;0.90;0.70;;;8.50;99.90;;;;;;5088319;28;20717;-74
2023/12/31 04:08:40;;;;;;;3.17;1.00;;;8.40;99.90;;;;;;5089412;28;20186;-74
2023/12/31 04:11:06;;;;;;;0.80;0.80;;;8.40;99.90;;;;;;5089400;28;20255;-73
2023/12/31 04:13:32;;;;;;;1.13;1.03;;;8.40;99.90;;;;;;5088040;28;20420;-73
2023/12/31 04:15:57;;;;;;;1.40;1.10;;;8.40;99.90;;;;;;5070608;28;20438;-73
2023/12/31 04:18:23;;;;;;;1.10;1.00;;;8.30;99.90;;;;;;5087989;28;20252;-73
2023/12/31 04:20:49;;;;;;;1.30;0.60;;;8.30;99.90;;;;;;5087865;28;20190;-73
2023/12/31 04:23:14;;;;;;;1.03;0.93;;;8.30;99.90;;;;;;5087947;28;20190;-73
2023/12/31 04:25:40;;;;;;;1.10;1.00;;;8.30;99.90;;;;;;5087602;28;20795;-73
2023/12/31 04:28:06;;;;;;;1.33;0.70;;;8.30;99.90;;;;;;5054377;28;20191;-73
2023/12/31 04:30:31;;;;;;;1.70;0.93;;;8.40;99.90;;;;;;5088859;28;20468;-73
2023/12/31 04:32:57;;;;;;;1.00;0.80;;;8.30;99.90;;;;;;5087605;28;20185;-74
2023/12/31 04:35:22;;;;;;;4.03;1.00;;;8.30;99.90;;;;;;5087271;28;20191;-74
2023/12/31 04:37:48;;;;;;;1.63;0.80;;;8.20;99.90;;;;;;5089117;28;20179;-73
2023/12/31 04:40:14;;;;;;;1.53;0.80;;;8.20;99.90;;;;;;5088881;28;20186;-73
2023/12/31 04:42:39;;;;;;;2.60;0.80;;;8.30;99.90;;;;;;5088956;28;20261;-73
2023/12/31 04:45:08;;;;;;;2.23;0.90;;;8.30;99.90;;;;;;5087274;28;20403;-73
2023/12/31 04:47:36;;;;;;;1.30;1.10;;;8.30;99.90;;;;;;5087276;28;20961;-73
2023/12/31 04:50:01;;;;;;;1.43;0.83;;;8.30;99.90;;;;;;5088538;28;20538;-74
2023/12/31 04:52:27;;;;;;;1.30;0.87;;;8.30;99.90;;;;;;5088935;28;21111;-74
2023/12/31 04:54:53;;;;;;;0.90;0.73;;;8.20;99.90;;;;;;5087241;28;20268;-74
2023/12/31 04:57:18;;;;;;;1.57;0.90;;;8.40;99.90;;;;;;5087031;28;20347;-74
2023/12/31 04:59:44;;;;;;;0.90;0.80;;;8.40;99.90;;;;;;5087712;28;20287;-74
2023/12/31 05:02:09;;;;;;;3.07;0.90;;;8.40;99.90;;;;;;5087285;28;20178;-74
2023/12/31 05:04:35;;;;;;;1.40;1.00;;;8.40;99.90;;;;;;5088807;28;20178;-74
2023/12/31 05:07:02;;;;;;;0.90;0.80;;;8.40;99.90;;;;;;5087136;28;20623;-73
2023/12/31 05:09:28;;;;;;;0.90;0.70;;;8.40;99.90;;;;;;5088361;28;20194;-74
2023/12/31 05:11:54;;;;;;;1.03;0.73;;;8.40;99.90;;;;;;5086934;28;20482;-75
2023/12/31 05:14:19;;;;;;;1.47;0.87;;;8.40;99.90;;;;;;5087116;28;20179;-75
2023/12/31 05:16:45;;;;;;;1.10;0.60;;;8.40;99.90;;;;;;5088370;28;20875;-73
2023/12/31 05:19:11;;;;;;;0.90;0.70;;;8.30;99.90;;;;;;5087157;28;20194;-74
2023/12/31 05:21:39;;;;;;;0.97;0.77;;;8.40;99.90;;;;;;5088456;28;20202;-74
2023/12/31 05:24:05;;;;;;;1.20;0.80;;;8.40;99.90;;;;;;5086831;28;20270;-73
2023/12/31 05:26:31;;;;;;;1.00;0.70;;;8.40;99.90;;;;;;5086874;28;20551;-74
2023/12/31 05:28:57;;;;;;;1.50;1.10;;;8.40;99.90;;;;;;5070040;28;20766;-73
2023/12/31 05:31:22;;;;;;;0.90;0.70;;;8.40;99.90;;;;;;5086860;28;20212;-74
2023/12/31 05:33:48;;;;;;;1.20;0.87;;;8.40;99.90;;;;;;5088402;28;20416;-74
2023/12/31 05:36:13;;;;;;;0.80;0.67;;;8.40;99.90;;;;;;5086500;28;20279;-74
2023/12/31 05:38:39;;;;;;;0.80;0.57;;;8.40;99.90;;;;;;5087027;28;20178;-74
2023/12/31 05:41:05;;;;;;;2.53;0.77;;;8.40;99.90;;;;;;5088191;28;20219;-74
2023/12/31 05:43:30;;;;;;;2.10;0.80;;;8.50;99.90;;;;;;5088370;28;20186;-74
2023/12/31 05:45:56;;;;;;;0.80;0.73;;;8.50;99.90;;;;;;5088228;28;20283;-74
2023/12/31 05:48:21;;;;;;;1.20;0.87;;;8.50;99.90;;;;;;5070226;28;20199;-73
2023/12/31 05:50:47;;;;;;;1.90;0.60;;;8.80;99.90;;;;;;5086856;28;20237;-74
2023/12/31 05:53:13;;;;;;;2.43;0.70;;;8.90;99.90;;;;;;5087218;28;20262;-74
2023/12/31 05:55:38;;;;;;;0.90;0.70;;;9.00;99.30;;;;;;5088488;28;21062;-74
2023/12/31 05:58:04;;;;;;;0.83;0.70;;;9.10;97.20;;;;;;5088887;28;20211;-74
2023/12/31 06:00:30;;;;;;;1.57;1.27;;;9.30;96.00;;;;;;5088771;28;20183;-74
2023/12/31 06:02:55;;;;;;;1.10;0.97;;;9.50;91.90;;;;;;5088711;28;20793;-74
2023/12/31 06:05:21;;;;;;;0.70;0.60;;;9.70;91.90;;;;;;5088628;28;20285;-74
2023/12/31 06:07:47;;;;;;;2.50;0.70;;;9.80;90.80;;;;;;5088838;28;20200;-74
2023/12/31 06:10:13;;;;;;;1.23;0.80;;;9.70;91.40;;;;;;5087987;28;20472;-74
2023/12/31 06:12:38;;;;;;;1.50;0.70;;;9.90;90.80;;;;;;5092413;28;20174;-74
2023/12/31 06:15:06;;;;;;;1.20;0.90;;;9.70;91.00;;;;;;5057502;28;20943;-73
2023/12/31 06:17:35;;;;;;;1.10;0.80;;;9.70;91.30;;;;;;5092337;28;20209;-74
2023/12/31 06:20:02;;;;;;;1.93;1.00;;;9.60;91.70;;;;;;5073299;28;21334;-74
2023/12/31 06:22:28;;;;;;;1.30;1.00;;;9.60;92.20;;;;;;5091960;28;20424;-73
2023/12/31 06:24:54;;;;;;;1.00;0.90;;;9.40;92.20;;;;;;5091637;28;20499;-73
2023/12/31 06:27:20;;;;;;;1.93;0.97;;;9.40;92.00;;;;;;5090106;28;20942;-74
2023/12/31 06:29:45;;;;;;;2.63;1.17;;;9.30;92.90;;;;;;5091409;28;20480;-73
2023/12/31 06:32:11;;;;;;;1.00;0.90;;;9.20;92.70;;;;;;5091479;28;20270;-73
2023/12/31 06:34:36;;;;;;;1.40;0.93;;;9.20;92.70;;;;;;5091227;28;20194;-74
2023/12/31 06:37:02;;;;;;;2.40;0.90;;;9.20;92.30;;;;;;5089815;28;20202;-73
2023/12/31 06:39:29;;;;;;;1.17;0.93;;;9.20;92.30;;;;;;5090021;28;20331;-73
2023/12/31 06:41:55;;;;;;;2.20;0.93;;;9.20;92.50;;;;;;5091258;28;20190;-73
2023/12/31 06:44:21;;;;;;;1.20;1.00;;;9.40;91.20;;;;;;5091217;28;20794;-73
2023/12/31 06:46:47;;;;;;;1.20;0.80;;;9.40;91.70;;;;;;5091070;28;20432;-73
2023/12/31 06:49:12;;;;;;;1.00;0.70;;;9.30;91.80;;;;;;5091036;28;20473;-73
2023/12/31 06:51:39;;;;;;;1.07;0.77;;;9.30;92.00;;;;;;5091152;28;20191;-73
2023/12/31 06:54:04;;;;;;;1.13;0.83;;;9.30;92.10;;;;;;5090837;28;20178;-73
2023/12/31 06:56:30;;;;;;;1.17;1.07;;;9.20;92.20;;;;;;5090829;28;20800;-73
2023/12/31 06:58:56;;;;;;;1.70;0.83;;;9.20;93.00;;;;;;5089845;28;20420;-73
2023/12/31 07:01:22;;;;;;;1.33;0.93;;;9.10;92.90;;;;;;5073063;28;20851;-73
2023/12/31 07:03:47;;;;;;;1.23;1.03;;;9.10;92.70;;;;;;5089307;28;20190;-74
2023/12/31 07:06:13;;;;;;;2.60;1.30;;;9.10;92.40;;;;;;5089386;28;20691;-73
2023/12/31 07:08:38;;;;;;;1.80;1.20;;;9.20;92.80;;;;;;5090624;28;20182;-73
2023/12/31 07:11:04;;;;;;;1.27;1.17;;;9.10;93.20;;;;;;5072202;28;20185;-74
2023/12/31 07:13:30;;;;;;;1.27;0.93;;;9.10;94.40;;;;;;5088890;28;20187;-73
2023/12/31 07:16:00;;;;;;;1.03;0.90;;;9.00;94.60;;;;;;5090470;28;20302;-74
2023/12/31 07:18:25;;;;;;;1.20;1.10;;;8.90;94.70;;;;;;5090374;28;20598;-74
2023/12/31 07:20:54;;;;;;;1.37;1.27;;;8.90;94.50;;;;;;5088925;28;20421;-74
2023/12/31 07:23:20;;;;;;;1.07;0.97;;;8.90;95.10;;;;;;5087944;28;20627;-73
2023/12/31 07:25:45;;;;;;;1.37;1.00;;;8.80;95.10;;;;;;5088879;28;20448;-74
2023/12/31 07:28:11;;;;;;;2.40;1.30;;;8.80;94.40;;;;;;5088918;28;20527;-74
2023/12/31 07:30:37;;;;;;;0.90;0.70;;;8.80;95.10;;;;;;5088790;28;20222;-74
2023/12/31 07:33:03;;;;;;;2.00;1.23;;;8.80;96.50;;;;;;5088922;28;20190;-73
2023/12/31 07:35:31;;;;;;;1.73;1.50;;;8.80;96.70;;;;;;5089962;28;21204;-74
2023/12/31 07:37:56;;;;;;;3.10;0.90;;;8.70;96.50;;;;;;5088577;28;20455;-74
2023/12/31 07:40:22;;;;;;;2.20;1.47;;;8.70;98.10;;;;;;5088543;28;20485;-74
2023/12/31 07:42:49;;;;;;;1.20;1.10;;;8.60;97.00;;;;;;5089943;28;20181;-73
2023/12/31 07:45:15;;;;;;;1.77;1.67;;;8.60;98.10;;;;;;5088465;28;20182;-74
2023/12/31 07:47:42;;;;;;;1.47;1.20;;;8.60;99.90;;;;;;5089866;28;20444;-74
2023/12/31 07:50:08;;;;;;;1.30;1.20;;;8.50;99.90;;;;;;5088371;28;20468;-74
2023/12/31 07:52:34;;;;;;;1.43;1.30;;;8.40;99.90;;;;;;5088067;28;20563;-74
2023/12/31 07:55:00;;;;;;;2.00;1.57;;;8.30;99.90;;;;;;5088360;28;20521;-75
2023/12/31 07:57:25;;;;;;;1.70;1.30;;;8.30;99.90;;;;;;5088469;28;20289;-74
2023/12/31 07:59:51;;;;;;;2.27;1.47;;;8.30;99.90;;;;;;5088320;28;20228;-74
2023/12/31 08:02:17;;;;;;;1.90;1.70;;;8.30;99.90;;;;;;5089563;28;20262;-74
2023/12/31 08:04:42;;;;;;;1.70;1.37;;;8.30;99.90;;;;;;5054819;28;20258;-74
2023/12/31 08:07:08;;;;;;;1.40;1.30;;;8.30;99.90;;;;;;5087810;28;20685;-74
2023/12/31 08:09:34;;;;;;;1.67;1.00;;;8.20;99.90;;;;;;5087857;28;20746;-74
2023/12/31 08:11:59;;;;;;;1.87;1.50;;;8.20;99.90;;;;;;5089385;28;20504;-74
2023/12/31 08:14:25;;;;;;;3.43;1.47;;;8.20;99.90;;;;;;5088085;28;20179;-73
2023/12/31 08:16:51;;;;;;;1.83;1.50;;;8.20;99.90;;;;;;5089343;28;20198;-74
2023/12/31 08:19:16;;;;;;;1.60;1.10;;;8.30;99.90;;;;;;5088088;28;20262;-74
2023/12/31 08:21:42;;;;;;;1.40;0.80;;;8.40;99.90;;;;;;5088022;28;20578;-74
2023/12/31 08:24:08;;;;;;;1.20;0.93;;;8.60;99.90;;;;;;5089211;28;20587;-74
2023/12/31 08:26:35;;;;;;;1.33;1.20;;;8.80;97.20;;;;;;5089018;28;20467;-74
2023/12/31 08:29:02;;;;;;;1.33;1.23;;;8.90;97.50;;;;;;5087886;28;20960;-75
2023/12/31 08:31:28;;;;;;;1.90;1.40;;;9.00;96.10;;;;;;5089401;28;20482;-73
2023/12/31 08:33:53;;;;;;;1.17;1.00;;;9.20;96.10;;;;;;5088727;28;20428;-73
2023/12/31 08:36:19;;;;;;;1.87;1.30;;;9.30;94.80;;;;;;5087468;28;20224;-73
2023/12/31 08:38:44;;;;;;;1.40;1.10;;;9.40;93.40;;;;;;5086159;28;20182;-73
2023/12/31 08:41:10;;;;;;;1.93;1.00;;;9.60;92.80;;;;;;5087735;28;20228;-73
2023/12/31 08:43:36;;;;;;;2.00;0.90;;;9.60;92.00;;;;;;5087417;28;20823;-73
2023/12/31 08:46:02;;;;;;;1.07;0.73;;;9.90;90.70;;;;;;5087366;28;20199;-73
2023/12/31 08:48:28;;;;;;;0.97;0.87;;;9.90;90.60;;;;;;5086043;28;20412;-74
2023/12/31 08:50:54;;;;;;;1.47;1.27;;;10.00;90.70;;;;;;5087401;28;20472;-75
2023/12/31 08:53:20;;;;;;;2.00;1.57;;;10.10;90.50;;;;;;5085909;28;20180;-75
2023/12/31 08:55:47;;;;;;;1.17;1.07;;;10.10;90.90;;;;;;5087290;28;20432;-74
2023/12/31 08:58:13;;;;;;;1.20;1.00;;;10.20;90.50;;;;;;5085857;28;20200;-74
2023/12/31 09:00:39;;;;;;;1.00;0.90;;;10.40;90.70;;;;;;5087345;28;20915;-74
2023/12/31 09:03:04;;;;;;;1.17;0.90;;;10.50;90.60;;;;;;5085970;28;20255;-74
2023/12/31 09:05:30;;;;;;;2.40;1.10;;;10.70;90.70;;;;;;5087424;28;20193;-74
2023/12/31 09:07:56;;;;;;;1.30;0.90;;;11.00;90.90;;;;;;5087294;28;20423;-74
2023/12/31 09:10:22;;;;;;;2.67;1.00;;;11.00;90.90;;;;;;5087267;28;20309;-74
2023/12/31 09:12:47;;;;;;;1.23;0.90;;;11.20;90.00;;;;;;5087375;28;20184;-74
2023/12/31 09:15:13;;;;;;;1.23;0.80;;;11.30;90.20;;;;;;5086028;28;20414;-74
2023/12/31 09:17:39;;;;;;;1.47;1.03;;;11.30;90.40;;;;;;5087821;28;20231;-74
2023/12/31 09:20:06;;;;;;;1.50;1.40;;;11.40;90.00;;;;;;5087835;28;20261;-74
2023/12/31 09:22:33;;;;;;;1.80;1.43;;;11.40;89.10;;;;;;5086442;28;20238;-73
2023/12/31 09:24:58;;;;;;;1.30;1.10;;;11.50;89.00;;;;;;5086397;28;20467;-74
2023/12/31 09:27:24;;;;;;;1.17;1.07;;;11.40;87.20;;;;;;5087359;28;20439;-74
2023/12/31 09:29:50;;;;;;;2.50;1.40;;;11.40;86.80;;;;;;5085960;28;20209;-74
2023/12/31 09:32:16;;;;;;;1.37;1.13;;;11.40;87.20;;;;;;5087157;28;20423;-74
2023/12/31 09:34:42;;;;;;;1.23;1.10;;;11.40;88.50;;;;;;5087086;28;20434;-74
2023/12/31 09:37:08;;;;;;;1.30;1.00;;;11.40;88.10;;;;;;5085326;28;20199;-74
2023/12/31 09:39:34;;;;;;;1.20;0.83;;;11.50;88.80;;;;;;5085079;28;20183;-74
2023/12/31 09:42:12;;;;;;;1.50;1.03;;;11.70;89.30;;;;;;5085063;28;20430;-74
2023/12/31 09:44:38;;;;;;;1.77;1.40;;;11.70;89.80;;;;;;5086918;28;20406;-73
2023/12/31 09:47:09;;;;;;;1.20;1.03;;;11.60;90.60;;;;;;5090531;28;20442;-74
2023/12/31 09:49:36;;;;;;;1.13;1.00;;;11.70;90.00;;;;;;5090824;28;20680;-74
2023/12/31 09:52:09;;;;;;;1.50;0.80;;;11.90;89.10;;;;;;5089082;28;20422;-73
2023/12/31 09:54:40;;;;;;;3.20;1.50;;;12.10;89.70;;;;;;5089342;28;20413;-74
2023/12/31 09:57:07;;;;;;;1.73;1.00;;;12.40;88.20;;;;;;5089152;28;20433;-74
2023/12/31 09:59:33;;;;;;;1.57;1.47;;;12.70;87.60;;;;;;5090857;28;21360;-73
2023/12/31 10:02:02;;;;;;;1.30;1.10;;;13.30;87.10;;;;;;5090604;28;20419;-73
2023/12/31 10:04:28;;;;;;;1.07;0.90;;;14.10;85.70;;;;;;5090595;28;20471;-74
2023/12/31 10:06:55;;;;;;;1.60;1.50;;;15.40;82.90;;;;;;5089235;28;20436;-74
2023/12/31 10:09:23;;;;;;;1.40;1.30;;;16.00;80.50;;;;;;5071886;28;20565;-75
2023/12/31 10:11:49;;;;;;;2.07;1.50;;;17.00;76.20;;;;;;5090791;28;20484;-74
2023/12/31 10:14:15;;;;;;;1.73;1.37;;;16.00;73.60;;;;;;5089009;28;20435;-74
2023/12/31 10:16:43;;;;;;;2.07;1.53;;;16.00;74.80;;;;;;5090710;28;20468;-73
2023/12/31 10:19:15;;;;;;;2.13;1.73;;;15.60;76.70;;;;;;5090371;28;20417;-74
2023/12/31 10:21:42;;;;;;;3.40;1.70;;;16.00;75.60;;;;;;5089183;28;20453;-73
2023/12/31 10:24:08;;;;;;;4.00;1.80;;;16.40;76.40;;;;;;5088722;28;20495;-73
2023/12/31 10:26:35;;;;;;;2.90;2.00;;;16.00;75.80;;;;;;5090213;28;20884;-73
2023/12/31 10:29:01;;;;;;;2.60;2.30;;;17.00;73.50;;;;;;5088404;28;20467;-73
2023/12/31 10:31:28;;;;;;;2.80;2.07;;;17.60;74.80;;;;;;5088513;28;20431;-73
2023/12/31 10:33:53;;;;;;;2.30;2.10;;;19.50;71.90;;;;;;5089939;28;20400;-73
2023/12/31 10:36:23;;;;;;;3.00;1.87;;;19.50;66.50;;;;;;5071414;28;20519;-73
2023/12/31 10:38:50;;;;;;;1.70;1.60;;;18.50;67.20;;;;;;5088398;28;20265;-72
2023/12/31 10:41:21;;;;;;;1.53;1.30;;;17.10;69.60;;;;;;5088748;28;20412;-72
2023/12/31 10:43:48;;;;;;;2.83;2.33;;;16.00;72.10;;;;;;5089683;28;21291;-73
2023/12/31 10:46:15;;;;;;;3.40;1.87;;;15.60;74.60;;;;;;5089706;28;20441;-72
2023/12/31 10:48:48;;;;;;;5.90;1.73;;;14.50;77.10;;;;;;5089590;28;20414;-74
2023/12/31 10:51:20;;;;;;;3.87;2.20;;;14.10;78.70;;;;;;5089440;28;20481;-74
2023/12/31 10:53:49;;;;;;;2.27;2.07;;;13.60;81.70;;;;;;5088150;28;21205;-74
2023/12/31 10:56:16;;;;;;;3.03;2.40;;;13.30;84.10;;;;;;5087802;28;20523;-73
2023/12/31 10:58:43;;;;;;;2.77;1.67;;;13.00;86.90;;;;;;5089342;28;20511;-73
2023/12/31 11:01:09;;;;;;;6.27;2.87;;;12.80;90.30;;;;;;5088081;28;20477;-73
2023/12/31 11:03:38;;;;;;;3.90;2.70;;;12.30;91.60;;;;;;5089460;28;20458;-73
2023/12/31 11:06:05;;;;;;;2.90;2.60;;;12.30;92.70;;;;;;5089491;28;20519;-72
2023/12/31 11:08:32;;;;;;;4.77;3.00;;;12.00;94.10;;;;;;5070957;28;21049;-73
2023/12/31 11:10:57;;;;;;;2.33;2.13;;;11.90;95.60;;;;;;5089135;28;20868;-73
2023/12/31 11:13:25;;;;;;;3.37;2.80;;;11.90;96.20;;;;;;5089280;28;20435;-72
2023/12/31 11:15:54;;;;;;;2.90;2.40;;;11.70;96.90;;;;;;5087695;28;20209;-73
2023/12/31 11:18:53;;;;;;;2.87;2.57;;;11.80;97.60;;;;;;5087483;28;20433;-74
2023/12/31 11:21:32;;;;;;;2.13;1.93;;;11.80;97.80;;;;;;5087494;28;20423;-74
2023/12/31 11:24:18;;;;;;;3.87;2.70;;;11.50;98.30;;;;;;5088958;28;20421;-74
2023/12/31 11:26:44;;;;;;;3.60;3.30;;;11.60;98.60;;;;;;5088066;28;20866;-74
2023/12/31 11:29:13;;;;;;;4.60;2.67;;;11.50;99.80;;;;;;5089320;28;20549;-74
2023/12/31 11:31:42;;;;;;;3.33;2.00;;;11.50;99.90;;;;;;5089362;28;20414;-73
2023/12/31 11:34:09;;;;;;;2.53;2.33;;;11.50;99.90;;;;;;5088972;28;20418;-73
2023/12/31 11:36:35;;;;;;;5.13;3.00;;;11.50;99.90;;;;;;5088869;28;20863;-73
2023/12/31 11:39:14;;;;;;;4.80;3.00;;;11.50;99.90;;;;;;5089121;28;20780;-73
2023/12/31 11:41:45;;;;;;;3.33;2.37;;;11.40;99.90;;;;;;5089040;28;20424;-73
2023/12/31 11:44:33;;;;;;;3.50;2.53;;;11.30;99.90;;;;;;5089174;28;20429;-73
2023/12/31 11:46:58;;;;;;;4.30;2.57;;;11.30;99.90;;;;;;5086815;28;20518;-74
2023/12/31 11:49:25;;;;;;;3.00;2.70;;;11.30;99.90;;;;;;5086926;28;20514;-73
2023/12/31 11:51:52;;;;;;;3.47;3.00;;;11.20;99.90;;;;;;5086899;28;20182;-73
2023/12/31 11:54:22;;;;;;;2.30;2.10;;;11.20;99.90;;;;;;5088500;28;20410;-73
2023/12/31 11:56:48;;;;;;;3.77;2.77;;;11.20;99.90;;;;;;5088438;28;20486;-73
2023/12/31 11:59:15;;;;;;;3.00;2.63;;;11.20;99.90;;;;;;5088588;28;20421;-73
2023/12/31 12:01:43;;;;;;;2.07;1.87;;;11.20;99.90;;;;;;5087099;28;20420;-73
2023/12/31 12:04:10;;;;;;;3.13;2.20;;;11.20;99.90;;;;;;5089431;28;20427;-72
2023/12/31 12:06:35;;;;;;;2.37;2.03;;;11.00;99.90;;;;;;5070941;28;20817;-73
2023/12/31 12:09:01;;;;;;;5.70;2.80;;;10.90;99.90;;;;;;5088261;28;20461;-74
2023/12/31 12:11:27;;;;;;;6.20;2.30;;;10.50;99.90;;;;;;5087264;28;20210;-73
2023/12/31 12:13:52;;;;;;;5.50;3.30;;;10.20;99.90;;;;;;5088741;28;20245;-73
2023/12/31 12:16:18;;;;;;;3.33;3.00;;;9.80;99.90;;;;;;5087494;28;20282;-74
2023/12/31 12:18:44;;;;;;;2.97;2.67;;;9.30;99.90;;;;;;5087353;28;20175;-74
2023/12/31 12:21:09;;;;;;;3.80;2.60;;;9.10;99.90;;;;;;5087313;28;20945;-74
2023/12/31 12:23:35;;;;;;;3.40;2.73;;;8.80;99.90;;;;;;5088387;28;20186;-74
2023/12/31 12:26:03;;;;;;;4.33;3.10;;;8.70;99.90;;;;;;5088417;28;20198;-75
2023/12/31 12:28:30;;;;;;;5.13;3.03;;;8.60;99.90;;;;;;5088485;28;20296;-76
2023/12/31 12:30:57;;;;;;;2.80;2.03;;;8.50;99.90;;;;;;5086821;28;20474;-75
2023/12/31 12:33:23;;;;;;;4.27;2.43;;;8.50;99.90;;;;;;5088171;28;20474;-75
2023/12/31 12:35:49;;;;;;;3.03;2.13;;;8.40;99.90;;;;;;5088084;28;20452;-74
2023/12/31 12:38:16;;;;;;;2.60;2.40;;;8.40;99.90;;;;;;5086877;28;20620;-74
2023/12/31 12:40:42;;;;;;;3.93;2.53;;;8.40;99.90;;;;;;5088081;28;20416;-74
2023/12/31 12:43:07;;;;;;;3.83;3.20;;;8.40;99.90;;;;;;5087074;28;20489;-74
2023/12/31 12:45:33;;;;;;;4.43;2.80;;;8.40;99.90;;;;;;5088091;28;20190;-75
2023/12/31 12:48:01;;;;;;;2.83;1.93;;;8.40;99.90;;;;;;5088098;28;20201;-74
2023/12/31 12:50:29;;;;;;;3.60;1.60;;;8.40;99.90;;;;;;5087675;28;20213;-74